Time;durP1;ratioP1;P1;durP2;ratioP2;P2;SDS_P1;SDS_P2;PMS_P1;PMS_P2;Temp;Humidity;BMP_temperature;BMP_pressure;BME280_temperature;BME280_humidity;BME280_pressure;Samples;Min_cycle;Max_cycle;Signal;HPM_P1;HPM_P2
2023/02/27 00:01:57;;;;;;;3.35;1.70;;;;;;;;;;5019968;28;20067;-74
2023/02/27 00:04:22;;;;;;;5.68;1.73;;;;;;;;;;5013130;28;20180;-75
2023/02/27 00:06:48;;;;;;;8.20;2.30;;;;;;;;;;5025841;28;20824;-73
2023/02/27 00:09:13;;;;;;;4.38;1.98;;;;;;;;;;5000467;28;20089;-73
2023/02/27 00:11:39;;;;;;;9.43;2.13;;;;;;;;;;5019407;28;20429;-74
2023/02/27 00:14:04;;;;;;;6.78;2.50;;;;;;;;;;5008056;28;20470;-74
2023/02/27 00:16:30;;;;;;;4.05;1.95;;;;;;;;;;5008785;28;20040;-73
2023/02/27 00:18:58;;;;;;;5.65;1.75;;;;;;;;;;5011925;28;20034;-73
2023/02/27 00:21:23;;;;;;;4.28;2.45;;;;;;;;;;5017281;28;20037;-74
2023/02/27 00:23:50;;;;;;;5.43;2.15;;;;;;;;;;5017650;28;20041;-74
2023/02/27 00:26:15;;;;;;;13.50;2.50;;;;;;;;;;5015759;28;20100;-74
2023/02/27 00:28:41;;;;;;;3.15;1.92;;;;;;;;;;5015853;28;20034;-73
2023/02/27 00:31:06;;;;;;;4.85;1.70;;;;;;;;;;5014425;28;20088;-73
2023/02/27 00:33:32;;;;;;;5.30;2.03;;;;;;;;;;5015892;28;20497;-73
2023/02/27 00:35:59;;;;;;;5.32;2.10;;;;;;;;;;5016041;28;20034;-74
2023/02/27 00:38:25;;;;;;;8.15;1.80;;;;;;;;;;5013357;28;20062;-74
2023/02/27 00:40:50;;;;;;;8.73;2.47;;;;;;;;;;5014845;28;20030;-74
2023/02/27 00:43:16;;;;;;;8.10;1.65;;;;;;;;;;5014789;28;20113;-73
2023/02/27 00:45:41;;;;;;;3.97;2.20;;;;;;;;;;5011011;28;20050;-74
2023/02/27 00:48:07;;;;;;;3.63;1.92;;;;;;;;;;5011971;28;20432;-74
2023/02/27 00:50:32;;;;;;;4.28;2.05;;;;;;;;;;5009966;28;20393;-73
2023/02/27 00:52:57;;;;;;;7.28;1.50;;;;;;;;;;5016572;28;20546;-74
2023/02/27 00:55:23;;;;;;;2.47;1.00;;;;;;;;;;5019263;28;20441;-74
2023/02/27 00:57:48;;;;;;;2.53;1.25;;;;;;;;;;5015231;28;20117;-73
2023/02/27 01:00:14;;;;;;;2.65;1.33;;;;;;;;;;5010321;28;20393;-73
2023/02/27 01:02:40;;;;;;;4.82;2.97;;;;;;;;;;5005144;28;20471;-73
2023/02/27 01:05:06;;;;;;;3.30;1.27;;;;;;;;;;5002392;28;20073;-74
2023/02/27 01:07:31;;;;;;;7.45;1.92;;;;;;;;;;5011903;28;20042;-73
2023/02/27 01:09:57;;;;;;;3.33;1.27;;;;;;;;;;4992808;28;20049;-74
2023/02/27 01:12:23;;;;;;;7.72;1.73;;;;;;;;;;5012151;28;20124;-74
2023/02/27 01:14:48;;;;;;;7.25;1.30;;;;;;;;;;5018996;28;20112;-74
2023/02/27 01:17:14;;;;;;;8.75;1.63;;;;;;;;;;5010588;28;20084;-74
2023/02/27 01:19:39;;;;;;;2.08;1.23;;;;;;;;;;5013816;28;20033;-74
2023/02/27 01:22:05;;;;;;;4.22;1.58;;;;;;;;;;5014041;28;20429;-74
2023/02/27 01:24:31;;;;;;;3.35;1.50;;;;;;;;;;5019256;28;20058;-73
2023/02/27 01:26:56;;;;;;;3.22;1.70;;;;;;;;;;5014376;28;20112;-73
2023/02/27 01:29:21;;;;;;;7.60;2.28;;;;;;;;;;5016809;28;20042;-76
2023/02/27 01:31:47;;;;;;;4.07;1.55;;;;;;;;;;5016691;28;20436;-73
2023/02/27 01:34:13;;;;;;;3.30;1.50;;;;;;;;;;5007485;28;20366;-73
2023/02/27 01:36:39;;;;;;;3.42;1.77;;;;;;;;;;5015508;28;20038;-74
2023/02/27 01:39:04;;;;;;;8.40;2.33;;;;;;;;;;5008303;28;20389;-73
2023/02/27 01:41:30;;;;;;;4.97;2.10;;;;;;;;;;5014687;28;20096;-73
2023/02/27 01:44:00;;;;;;;4.90;2.05;;;;;;;;;;5013343;28;20042;-73
2023/02/27 01:46:28;;;;;;;5.22;2.10;;;;;;;;;;5012597;28;20049;-73
2023/02/27 01:48:58;;;;;;;6.72;2.10;;;;;;;;;;5007073;28;20466;-73
2023/02/27 01:51:25;;;;;;;7.20;1.70;;;;;;;;;;5028188;28;20052;-73
2023/02/27 01:53:51;;;;;;;3.42;1.67;;;;;;;;;;5029497;28;20036;-73
2023/02/27 01:56:19;;;;;;;2.83;1.77;;;;;;;;;;5019652;28;20046;-73
2023/02/27 01:58:47;;;;;;;3.92;1.52;;;;;;;;;;5008198;28;20037;-73
2023/02/27 02:01:12;;;;;;;7.78;1.60;;;;;;;;;;5015456;28;20124;-73
2023/02/27 02:03:54;;;;;;;5.85;1.73;;;;;;;;;;5014825;28;20494;-73
2023/02/27 02:06:20;;;;;;;2.75;1.40;;;;;;;;;;5013297;28;20382;-73
2023/02/27 02:08:47;;;;;;;4.57;1.90;;;;;;;;;;5016995;28;20132;-75
2023/02/27 02:11:14;;;;;;;2.63;1.42;;;;;;;;;;5014970;28;20113;-73
2023/02/27 02:13:40;;;;;;;6.13;1.73;;;;;;;;;;5009517;28;20034;-73
2023/02/27 02:16:24;;;;;;;7.00;1.83;;;;;;;;;;5014674;28;20128;-73
2023/02/27 02:19:16;;;;;;;2.43;1.43;;;;;;;;;;5010340;28;20070;-73
2023/02/27 02:21:56;;;;;;;2.83;1.70;;;;;;;;;;5016974;28;20038;-73
2023/02/27 02:24:27;;;;;;;3.05;1.90;;;;;;;;;;5032417;28;20605;-76
2023/02/27 02:27:34;;;;;;;3.63;1.83;;;;;;;;;;5022386;28;20039;-74
2023/02/27 02:30:37;;;;;;;2.85;1.38;;;;;;;;;;4990406;28;20092;-74
2023/02/27 02:33:17;;;;;;;6.88;1.95;;;;;;;;;;5012332;28;20038;-73
2023/02/27 02:35:49;;;;;;;5.70;1.27;;;;;;;;;;5014880;28;20124;-73
2023/02/27 02:38:36;;;;;;;5.78;1.65;;;;;;;;;;5019396;28;20074;-73
2023/02/27 02:41:10;;;;;;;2.80;1.73;;;;;;;;;;5008089;28;20508;-73
2023/02/27 02:44:03;;;;;;;3.92;1.98;;;;;;;;;;5011487;28;20046;-73
2023/02/27 02:46:42;;;;;;;2.88;1.50;;;;;;;;;;5013861;28;20030;-73
2023/02/27 02:49:25;;;;;;;15.48;2.30;;;;;;;;;;5022215;28;20049;-73
2023/02/27 02:51:58;;;;;;;6.68;1.83;;;;;;;;;;5019250;28;20042;-74
2023/02/27 02:54:32;;;;;;;4.55;1.48;;;;;;;;;;5015868;28;20043;-77
2023/02/27 02:57:47;;;;;;;2.85;1.75;;;;;;;;;;5032149;28;20038;-73
2023/02/27 03:00:16;;;;;;;3.50;1.38;;;;;;;;;;5002111;28;20053;-73
2023/02/27 03:02:45;;;;;;;2.78;1.38;;;;;;;;;;5024168;28;20511;-73
2023/02/27 03:05:22;;;;;;;3.03;1.40;;;;;;;;;;5018271;28;20034;-73
2023/02/27 03:08:05;;;;;;;12.95;1.70;;;;;;;;;;5016434;28;20046;-73
2023/02/27 03:10:44;;;;;;;2.67;1.58;;;;;;;;;;5025032;28;20062;-72
2023/02/27 03:13:28;;;;;;;8.68;1.58;;;;;;;;;;5022786;28;20041;-74
2023/02/27 03:15:58;;;;;;;2.95;1.60;;;;;;;;;;5015756;28;20038;-74
2023/02/27 03:18:27;;;;;;;2.45;1.23;;;;;;;;;;5007080;28;20038;-73
2023/02/27 03:21:07;;;;;;;6.32;1.70;;;;;;;;;;5008378;28;20371;-73
2023/02/27 03:23:41;;;;;;;3.67;2.28;;;;;;;;;;5017286;28;20048;-76
2023/02/27 03:26:09;;;;;;;3.55;1.83;;;;;;;;;;4996850;28;20046;-73
2023/02/27 03:28:37;;;;;;;4.45;1.95;;;;;;;;;;5019131;28;20068;-73
2023/02/27 03:31:16;;;;;;;3.50;1.80;;;;;;;;;;5015987;28;20085;-73
2023/02/27 03:33:55;;;;;;;4.43;1.55;;;;;;;;;;5025720;28;20061;-73
2023/02/27 03:36:53;;;;;;;9.75;2.10;;;;;;;;;;5025794;28;20450;-73
2023/02/27 03:39:41;;;;;;;3.78;1.88;;;;;;;;;;4998907;28;20064;-73
2023/02/27 03:42:06;;;;;;;3.47;1.67;;;;;;;;;;5008437;28;20045;-73
2023/02/27 03:44:47;;;;;;;8.13;2.28;;;;;;;;;;5010776;28;20030;-73
2023/02/27 03:47:12;;;;;;;3.33;1.73;;;;;;;;;;5014776;28;20141;-73
2023/02/27 03:49:37;;;;;;;4.25;1.80;;;;;;;;;;5004398;28;20119;-73
2023/02/27 03:52:03;;;;;;;12.25;2.30;;;;;;;;;;5015388;28;20042;-73
2023/02/27 03:54:43;;;;;;;6.97;2.25;;;;;;;;;;5015501;28;20044;-73
2023/02/27 03:57:09;;;;;;;6.55;1.95;;;;;;;;;;5012534;28;20492;-73
2023/02/27 03:59:35;;;;;;;9.93;2.22;;;;;;;;;;5024193;28;20120;-73
2023/02/27 04:02:02;;;;;;;11.43;2.40;;;;;;;;;;5013269;28;20025;-73
2023/02/27 04:04:30;;;;;;;4.78;2.33;;;;;;;;;;5009808;28;20065;-73
2023/02/27 04:07:23;;;;;;;17.45;2.88;;;;;;;;;;5014688;28;21301;-73
2023/02/27 04:10:13;;;;;;;6.38;2.28;;;;;;;;;;5016957;28;20041;-73
2023/02/27 04:13:03;;;;;;;7.10;1.98;;;;;;;;;;5014522;28;20053;-73
2023/02/27 04:15:59;;;;;;;9.15;1.73;;;;;;;;;;5020149;28;20061;-74
2023/02/27 04:18:39;;;;;;;5.75;2.15;;;;;;;;;;5006555;28;20041;-73
2023/02/27 04:21:14;;;;;;;7.15;2.78;;;;;;;;;;5017717;28;20033;-73
2023/02/27 04:23:54;;;;;;;8.55;2.20;;;;;;;;;;5013112;28;20037;-73
2023/02/27 04:26:32;;;;;;;6.50;2.92;;;;;;;;;;5016418;28;20478;-73
2023/02/27 04:29:13;;;;;;;7.00;2.35;;;;;;;;;;5015368;28;20045;-73
2023/02/27 04:31:38;;;;;;;7.93;2.45;;;;;;;;;;5020550;28;20038;-73
2023/02/27 04:34:17;;;;;;;4.68;2.08;;;;;;;;;;5015252;28;20120;-73
2023/02/27 04:37:07;;;;;;;4.35;1.73;;;;;;;;;;5018710;28;20057;-73
2023/02/27 04:39:42;;;;;;;4.65;2.00;;;;;;;;;;5019064;28;20072;-73
2023/02/27 04:42:15;;;;;;;8.15;2.38;;;;;;;;;;5009071;28;20042;-73
2023/02/27 04:44:41;;;;;;;5.22;2.58;;;;;;;;;;5033813;28;20490;-73
2023/02/27 04:47:08;;;;;;;4.70;2.33;;;;;;;;;;5014247;28;20045;-73
2023/02/27 04:49:38;;;;;;;11.00;2.92;;;;;;;;;;5010955;28;20037;-72
2023/02/27 04:52:20;;;;;;;3.55;2.13;;;;;;;;;;5005450;28;20046;-73
2023/02/27 04:54:54;;;;;;;5.43;1.88;;;;;;;;;;5031699;28;20042;-72
2023/02/27 04:57:21;;;;;;;;;;;;;;;;;;5016306;28;20425;-73
2023/02/27 04:59:50;;;;;;;3.70;1.88;;;;;;;;;;5011818;28;19921;-73
2023/02/27 05:02:37;;;;;;;4.75;2.13;;;;;;;;;;4993305;28;20374;-73
2023/02/27 05:05:05;;;;;;;7.07;2.13;;;;;;;;;;5010317;28;20136;-73
2023/02/27 05:07:36;;;;;;;4.82;2.00;;;;;;;;;;5029877;28;20022;-73
2023/02/27 05:10:04;;;;;;;4.03;1.88;;;;;;;;;;5007861;28;20096;-73
2023/02/27 05:12:50;;;;;;;4.25;1.80;;;;;;;;;;5003241;28;20397;-73
2023/02/27 05:15:18;;;;;;;8.45;1.70;;;;;;;;;;5008087;28;20034;-73
2023/02/27 05:17:48;;;;;;;10.55;2.28;;;;;;;;;;5008564;28;20050;-76
2023/02/27 05:20:14;;;;;;;5.47;1.70;;;;;;;;;;5015393;28;20030;-73
2023/02/27 05:22:52;;;;;;;4.50;2.15;;;;;;;;;;5010728;28;20092;-73
2023/02/27 05:25:40;;;;;;;5.93;2.05;;;;;;;;;;5032589;28;20053;-74
2023/02/27 05:28:12;;;;;;;6.38;1.92;;;;;;;;;;5014951;28;20030;-73
2023/02/27 05:30:58;;;;;;;6.30;1.50;;;;;;;;;;5019162;28;20037;-73
2023/02/27 05:33:37;;;;;;;5.88;2.03;;;;;;;;;;5014091;28;20041;-73
2023/02/27 05:36:23;;;;;;;5.82;1.95;;;;;;;;;;5013654;28;20512;-73
2023/02/27 05:38:52;;;;;;;4.30;1.70;;;;;;;;;;5026751;28;20034;-73
2023/02/27 05:41:24;;;;;;;4.68;1.80;;;;;;;;;;5011109;28;20042;-73
2023/02/27 05:43:53;;;;;;;4.65;1.67;;;;;;;;;;5008328;28;20041;-73
2023/02/27 05:46:21;;;;;;;6.57;1.80;;;;;;;;;;5011859;28;20046;-73
2023/02/27 05:48:51;;;;;;;4.45;1.92;;;;;;;;;;5012321;28;20036;-73
2023/02/27 05:51:17;;;;;;;7.57;2.10;;;;;;;;;;5030409;28;20037;-73
2023/02/27 05:53:50;;;;;;;4.50;1.88;;;;;;;;;;5014878;28;20524;-73
2023/02/27 05:56:17;;;;;;;6.30;2.17;;;;;;;;;;5023485;28;20223;-73
2023/02/27 05:58:49;;;;;;;8.63;2.15;;;;;;;;;;5027446;28;20422;-75
2023/02/27 06:01:14;;;;;;;3.45;1.83;;;;;;;;;;5011542;28;20127;-73
2023/02/27 06:03:40;;;;;;;5.05;1.65;;;;;;;;;;5013699;28;20490;-73
2023/02/27 06:06:10;;;;;;;7.78;2.80;;;;;;;;;;5012080;28;20136;-73
2023/02/27 06:08:36;;;;;;;6.43;2.13;;;;;;;;;;5035799;28;20022;-73
2023/02/27 06:11:01;;;;;;;8.00;2.05;;;;;;;;;;5018564;28;20383;-73
2023/02/27 06:13:27;;;;;;;9.95;2.72;;;;;;;;;;5028889;28;20117;-73
2023/02/27 06:15:53;;;;;;;10.90;2.30;;;;;;;;;;5014866;28;20034;-72
2023/02/27 06:18:19;;;;;;;5.93;1.92;;;;;;;;;;5012306;28;20474;-72
2023/02/27 06:20:45;;;;;;;5.30;1.92;;;;;;;;;;5011535;28;20045;-73
2023/02/27 06:23:11;;;;;;;9.43;1.75;;;;;;;;;;5010253;28;20117;-73
2023/02/27 06:25:37;;;;;;;4.97;2.20;;;;;;;;;;5016713;28;20038;-74
2023/02/27 06:28:03;;;;;;;5.97;1.88;;;;;;;;;;5009893;28;20084;-73
2023/02/27 06:30:29;;;;;;;7.40;2.22;;;;;;;;;;5012927;28;20409;-73
2023/02/27 06:32:54;;;;;;;6.10;2.30;;;;;;;;;;5013462;28;20467;-73
2023/02/27 06:35:20;;;;;;;5.60;2.05;;;;;;;;;;5013296;28;20034;-73
2023/02/27 06:37:46;;;;;;;5.47;2.00;;;;;;;;;;5017076;28;20048;-73
2023/02/27 06:40:12;;;;;;;6.82;2.17;;;;;;;;;;5016135;28;20374;-73
2023/02/27 06:42:38;;;;;;;7.57;2.67;;;;;;;;;;5017011;28;20478;-72
2023/02/27 06:45:04;;;;;;;6.18;2.15;;;;;;;;;;5012932;28;20484;-72
2023/02/27 06:47:30;;;;;;;9.38;2.20;;;;;;;;;;5014850;28;20046;-77
2023/02/27 06:49:56;;;;;;;6.95;2.08;;;;;;;;;;4997777;28;20100;-73
2023/02/27 06:52:22;;;;;;;7.00;2.28;;;;;;;;;;5006013;28;20133;-73
2023/02/27 06:54:47;;;;;;;7.20;2.17;;;;;;;;;;5003692;28;20085;-73
2023/02/27 06:57:14;;;;;;;7.15;2.05;;;;;;;;;;5007759;28;20046;-73
2023/02/27 06:59:40;;;;;;;8.90;2.45;;;;;;;;;;5006829;28;20062;-73
2023/02/27 07:02:06;;;;;;;9.02;2.10;;;;;;;;;;5009001;28;20062;-73
2023/02/27 07:04:31;;;;;;;7.00;1.85;;;;;;;;;;5016822;28;20069;-73
2023/02/27 07:06:58;;;;;;;7.45;1.98;;;;;;;;;;5014929;28;20103;-73
2023/02/27 07:09:24;;;;;;;7.15;2.35;;;;;;;;;;5030564;28;20100;-72
2023/02/27 07:11:49;;;;;;;5.13;2.30;;;;;;;;;;5016700;28;20065;-74
2023/02/27 07:14:15;;;;;;;4.47;2.00;;;;;;;;;;5016694;28;20056;-73
2023/02/27 07:16:41;;;;;;;7.35;2.22;;;;;;;;;;5017040;28;20034;-73
2023/02/27 07:19:07;;;;;;;7.20;2.78;;;;;;;;;;5006883;28;20045;-73
2023/02/27 07:21:32;;;;;;;8.32;3.03;;;;;;;;;;5015283;28;20025;-74
2023/02/27 07:23:58;;;;;;;3.92;2.05;;;;;;;;;;5031948;28;20033;-73
2023/02/27 07:26:23;;;;;;;9.35;2.78;;;;;;;;;;5009416;28;20112;-73
2023/02/27 07:28:49;;;;;;;7.95;2.88;;;;;;;;;;5001293;28;20033;-73
2023/02/27 07:31:14;;;;;;;4.80;2.92;;;;;;;;;;5016493;28;20038;-73
2023/02/27 07:33:40;;;;;;;11.02;3.33;;;;;;;;;;5031548;28;20037;-73
2023/02/27 07:36:06;;;;;;;12.75;4.20;;;;;;;;;;5002430;28;20040;-73
2023/02/27 07:38:32;;;;;;;7.25;4.13;;;;;;;;;;5015305;28;20041;-73
2023/02/27 07:40:57;;;;;;;10.32;4.60;;;;;;;;;;5002510;28;20033;-72
2023/02/27 07:43:24;;;;;;;11.32;5.05;;;;;;;;;;5016298;28;20030;-73
2023/02/27 07:45:50;;;;;;;6.85;3.55;;;;;;;;;;5015876;28;20044;-73
2023/02/27 07:48:16;;;;;;;7.00;3.38;;;;;;;;;;5012932;28;20048;-74
2023/02/27 07:50:41;;;;;;;12.10;3.58;;;;;;;;;;5013829;28;20022;-74
2023/02/27 07:53:07;;;;;;;6.20;3.30;;;;;;;;;;5016012;28;20112;-75
2023/02/27 07:55:33;;;;;;;10.60;3.97;;;;;;;;;;5014731;28;20042;-75
2023/02/27 07:57:58;;;;;;;10.27;4.38;;;;;;;;;;5031116;28;20105;-74
2023/02/27 08:00:23;;;;;;;4.72;3.58;;;;;;;;;;5016028;28;20038;-74
2023/02/27 08:02:49;;;;;;;10.35;5.07;;;;;;;;;;5015048;28;20037;-73
2023/02/27 08:05:15;;;;;;;15.13;5.60;;;;;;;;;;5014439;28;20026;-73
2023/02/27 08:07:40;;;;;;;10.85;5.45;;;;;;;;;;5015858;28;20060;-74
2023/02/27 08:10:06;;;;;;;8.02;4.88;;;;;;;;;;5015654;28;20033;-74
2023/02/27 08:12:31;;;;;;;10.90;5.78;;;;;;;;;;5014280;28;20117;-74
2023/02/27 08:14:57;;;;;;;10.48;5.55;;;;;;;;;;5015922;28;20454;-74
2023/02/27 08:17:22;;;;;;;11.60;5.70;;;;;;;;;;5015531;28;20065;-74
2023/02/27 08:19:48;;;;;;;17.05;6.20;;;;;;;;;;5015763;28;20044;-74
2023/02/27 08:22:13;;;;;;;13.95;6.85;;;;;;;;;;5015353;28;20042;-74
2023/02/27 08:24:39;;;;;;;13.63;5.55;;;;;;;;;;5015050;28;20045;-74
2023/02/27 08:27:05;;;;;;;10.45;5.30;;;;;;;;;;5015282;28;20034;-75
2023/02/27 08:29:31;;;;;;;8.98;5.90;;;;;;;;;;5015367;28;20041;-74
2023/02/27 08:31:58;;;;;;;10.73;5.97;;;;;;;;;;5015393;28;20046;-74
2023/02/27 08:34:24;;;;;;;11.60;5.57;;;;;;;;;;5015147;28;20474;-74
2023/02/27 08:36:50;;;;;;;10.50;5.05;;;;;;;;;;5013242;28;20030;-74
2023/02/27 08:39:16;;;;;;;10.02;5.53;;;;;;;;;;5014481;28;20041;-74
2023/02/27 08:41:42;;;;;;;10.07;5.07;;;;;;;;;;5015383;28;20030;-74
2023/02/27 08:44:07;;;;;;;13.02;5.32;;;;;;;;;;5015091;28;20100;-74
2023/02/27 08:46:33;;;;;;;7.78;4.93;;;;;;;;;;5015161;28;20030;-75
2023/02/27 08:48:58;;;;;;;7.35;4.80;;;;;;;;;;5014887;28;20030;-74
2023/02/27 08:51:24;;;;;;;10.75;5.25;;;;;;;;;;5000285;28;20061;-76
2023/02/27 08:53:49;;;;;;;8.07;5.70;;;;;;;;;;5006169;28;20049;-75
2023/02/27 08:56:15;;;;;;;12.43;5.90;;;;;;;;;;5014511;28;20421;-75
2023/02/27 08:58:40;;;;;;;8.75;5.63;;;;;;;;;;5013985;28;20072;-75
2023/02/27 09:01:05;;;;;;;10.13;5.32;;;;;;;;;;5014703;28;20477;-75
2023/02/27 09:03:31;;;;;;;8.93;5.05;;;;;;;;;;5013869;28;20026;-75
2023/02/27 09:05:56;;;;;;;11.02;6.25;;;;;;;;;;5013883;28;20525;-75
2023/02/27 09:08:22;;;;;;;9.65;5.90;;;;;;;;;;5013920;28;20092;-75
2023/02/27 09:10:48;;;;;;;8.30;5.65;;;;;;;;;;4996718;28;20398;-74
2023/02/27 09:13:14;;;;;;;9.70;5.28;;;;;;;;;;5010128;28;20030;-75
2023/02/27 09:15:39;;;;;;;7.95;5.28;;;;;;;;;;5012122;28;20121;-75
2023/02/27 09:18:05;;;;;;;10.25;5.28;;;;;;;;;;5011370;28;20108;-75
2023/02/27 09:20:36;;;;;;;11.02;6.03;;;;;;;;;;5005407;28;20393;-75
2023/02/27 09:23:03;;;;;;;11.10;5.32;;;;;;;;;;5010776;28;20053;-75
2023/02/27 09:25:28;;;;;;;12.05;4.80;;;;;;;;;;5012451;28;20042;-74
2023/02/27 09:27:54;;;;;;;8.25;5.32;;;;;;;;;;4994796;28;20481;-75
2023/02/27 09:30:19;;;;;;;8.70;5.82;;;;;;;;;;5003889;28;20042;-74
2023/02/27 09:32:45;;;;;;;10.07;5.20;;;;;;;;;;5000329;28;20103;-74
2023/02/27 09:35:12;;;;;;;9.02;5.25;;;;;;;;;;5019717;28;20025;-75
2023/02/27 09:37:38;;;;;;;11.00;5.93;;;;;;;;;;5019337;28;20077;-75
2023/02/27 09:40:06;;;;;;;8.35;5.00;;;;;;;;;;4998249;28;20041;-75
2023/02/27 09:42:44;;;;;;;6.35;4.28;;;;;;;;;;4994696;28;20026;-75
2023/02/27 09:45:15;;;;;;;7.93;4.35;;;;;;;;;;5009808;28;20125;-74
2023/02/27 09:47:46;;;;;;;6.88;4.18;;;;;;;;;;5022740;28;20113;-74
2023/02/27 09:50:27;;;;;;;8.63;4.50;;;;;;;;;;5020681;28;20046;-75
2023/02/27 09:52:53;;;;;;;9.15;4.80;;;;;;;;;;5002417;28;20050;-75
2023/02/27 09:55:20;;;;;;;7.72;4.60;;;;;;;;;;5008346;28;20087;-74
2023/02/27 09:58:05;;;;;;;8.18;4.50;;;;;;;;;;5023457;28;20033;-74
2023/02/27 10:00:44;;;;;;;8.07;4.00;;;;;;;;;;4999872;28;20045;-75
2023/02/27 10:03:46;;;;;;;8.40;4.20;;;;;;;;;;5003656;28;20038;-75
2023/02/27 10:06:24;;;;;;;7.30;4.20;;;;;;;;;;4997678;28;20137;-75
2023/02/27 10:08:52;;;;;;;8.30;4.20;;;;;;;;;;5027484;28;20533;-75
2023/02/27 10:11:46;;;;;;;6.80;3.67;;;;;;;;;;5011480;28;20045;-75
2023/02/27 10:14:19;;;;;;;7.25;3.80;;;;;;;;;;5004613;28;20382;-75
2023/02/27 10:16:45;;;;;;;6.82;3.50;;;;;;;;;;5012805;28;20149;-75
2023/02/27 10:19:15;;;;;;;6.60;3.72;;;;;;;;;;5000581;28;20038;-75
2023/02/27 10:21:47;;;;;;;6.75;4.10;;;;;;;;;;5010586;28;20088;-75
2023/02/27 10:24:22;;;;;;;8.27;4.05;;;;;;;;;;5012711;28;20037;-75
2023/02/27 10:26:51;;;;;;;6.65;3.92;;;;;;;;;;4996697;28;20362;-75
2023/02/27 10:29:31;;;;;;;6.78;4.28;;;;;;;;;;5005517;28;20367;-74
2023/02/27 10:32:09;;;;;;;6.50;4.03;;;;;;;;;;5012433;28;20411;-75
2023/02/27 10:34:36;;;;;;;8.80;3.80;;;;;;;;;;5011728;28;20123;-74
2023/02/27 10:37:04;;;;;;;5.68;3.50;;;;;;;;;;5012863;28;20037;-75
2023/02/27 10:39:42;;;;;;;6.13;3.58;;;;;;;;;;5005116;28;20029;-75
2023/02/27 10:42:08;;;;;;;5.95;3.63;;;;;;;;;;5009416;28;20541;-75
2023/02/27 10:44:33;;;;;;;3.85;2.22;;;;;;;;;;4985348;28;20042;-74
2023/02/27 10:46:59;;;;;;;8.13;4.07;;;;;;;;;;5012502;28;20496;-76
2023/02/27 10:49:25;;;;;;;7.43;3.88;;;;;;;;;;5010534;28;20046;-74
2023/02/27 10:52:12;;;;;;;7.78;3.17;;;;;;;;;;5027897;28;20046;-74
2023/02/27 10:54:38;;;;;;;6.13;3.53;;;;;;;;;;5010427;28;20029;-75
2023/02/27 10:57:26;;;;;;;4.43;3.03;;;;;;;;;;5011626;28;20108;-75
2023/02/27 10:59:58;;;;;;;9.93;3.40;;;;;;;;;;5007917;28;20042;-75
2023/02/27 11:02:39;;;;;;;6.40;4.10;;;;;;;;;;5011361;28;20042;-75
2023/02/27 11:05:27;;;;;;;7.97;3.97;;;;;;;;;;5011306;28;20056;-75
2023/02/27 11:07:54;;;;;;;7.82;4.00;;;;;;;;;;5000282;28;20038;-76
2023/02/27 11:10:27;;;;;;;7.97;2.80;;;;;;;;;;5004561;28;20118;-74
2023/02/27 11:12:58;;;;;;;7.65;3.30;;;;;;;;;;5027950;28;20121;-76
2023/02/27 11:15:27;;;;;;;5.82;3.20;;;;;;;;;;5011398;28;20038;-74
2023/02/27 11:17:53;;;;;;;6.20;3.05;;;;;;;;;;5027555;28;20038;-76
2023/02/27 11:20:28;;;;;;;4.95;2.65;;;;;;;;;;5012441;28;20112;-75
2023/02/27 11:23:13;;;;;;;4.55;2.45;;;;;;;;;;5014597;28;20038;-75
2023/02/27 11:25:39;;;;;;;4.30;2.80;;;;;;;;;;5008548;28;20026;-75
2023/02/27 11:28:28;;;;;;;6.38;2.47;;;;;;;;;;5031149;28;20038;-75
2023/02/27 11:31:00;;;;;;;5.97;2.90;;;;;;;;;;5015769;28;20378;-76
2023/02/27 11:33:27;;;;;;;4.18;2.40;;;;;;;;;;5015917;28;20053;-75
2023/02/27 11:35:54;;;;;;;3.67;1.75;;;;;;;;;;5013572;28;20022;-78
2023/02/27 11:38:26;;;;;;;2.67;1.42;;;;;;;;;;5027703;28;20038;-76
2023/02/27 11:41:00;;;;;;;4.20;2.03;;;;;;;;;;5014524;28;20046;-75
2023/02/27 11:43:27;;;;;;;;;;;;;;;;;;4999322;28;20433;-78
2023/02/27 11:46:12;;;;;;;2.03;1.45;;;;;;;;;;5009031;28;19924;-75
2023/02/27 11:48:39;;;;;;;5.15;1.75;;;;;;;;;;5003038;28;20062;-75
2023/02/27 11:51:20;;;;;;;4.53;1.63;;;;;;;;;;5007080;28;20125;-76
2023/02/27 11:53:52;;;;;;;3.10;1.60;;;;;;;;;;5001693;28;20038;-75
2023/02/27 11:56:21;;;;;;;2.45;1.63;;;;;;;;;;5013681;28;20057;-75
2023/02/27 11:59:10;;;;;;;5.60;1.80;;;;;;;;;;5009531;28;20390;-74
2023/02/27 12:01:42;;;;;;;5.22;2.30;;;;;;;;;;4994573;28;20046;-74
2023/02/27 12:04:18;;;;;;;3.58;1.42;;;;;;;;;;5029338;28;20117;-74
2023/02/27 12:07:14;;;;;;;4.95;2.20;;;;;;;;;;5000995;28;20128;-77
2023/02/27 12:09:47;;;;;;;3.25;1.92;;;;;;;;;;4999545;28;20050;-75
2023/02/27 12:12:40;;;;;;;3.08;1.90;;;;;;;;;;5014306;28;20140;-75
2023/02/27 12:15:09;;;;;;;7.00;2.83;;;;;;;;;;5003654;28;20132;-74
2023/02/27 12:17:47;;;;;;;5.07;2.97;;;;;;;;;;5014397;28;20041;-74
2023/02/27 12:20:29;;;;;;;4.38;2.05;;;;;;;;;;5028189;28;20149;-75
2023/02/27 12:22:55;;;;;;;2.92;1.98;;;;;;;;;;5014125;28;20046;-74
2023/02/27 12:25:36;;;;;;;6.70;2.72;;;;;;;;;;4997174;28;20049;-74
2023/02/27 12:28:08;;;;;;;4.47;2.53;;;;;;;;;;5013827;28;20038;-75
2023/02/27 12:30:49;;;;;;;5.00;1.98;;;;;;;;;;5001084;28;20075;-74
2023/02/27 12:33:37;;;;;;;7.20;2.55;;;;;;;;;;4999525;28;20099;-74
2023/02/27 12:36:04;;;;;;;5.47;2.58;;;;;;;;;;5007264;28;20125;-74
2023/02/27 12:38:30;;;;;;;3.22;2.08;;;;;;;;;;5011241;28;20890;-77
2023/02/27 12:41:22;;;;;;;4.38;2.30;;;;;;;;;;5004029;28;20042;-75
2023/02/27 12:44:11;;;;;;;3.00;2.10;;;;;;;;;;5013665;28;20045;-75
2023/02/27 12:46:57;;;;;;;2.28;1.40;;;;;;;;;;5011299;28;20037;-74
2023/02/27 12:49:44;;;;;;;6.43;2.20;;;;;;;;;;5003325;28;20041;-74
2023/02/27 12:52:21;;;;;;;4.53;2.25;;;;;;;;;;5011006;28;20065;-74
2023/02/27 12:55:08;;;;;;;4.72;2.50;;;;;;;;;;5013499;28;20038;-74
2023/02/27 12:58:12;;;;;;;6.15;2.45;;;;;;;;;;5028508;28;20492;-74
2023/02/27 13:00:50;;;;;;;3.90;2.03;;;;;;;;;;5002620;28;20034;-74
2023/02/27 13:03:38;;;;;;;3.53;2.42;;;;;;;;;;5012356;28;20045;-75
2023/02/27 13:06:26;;;;;;;3.88;2.05;;;;;;;;;;5013144;28;20121;-75
2023/02/27 13:09:07;;;;;;;5.45;2.70;;;;;;;;;;5002884;28;20116;-74
2023/02/27 13:11:43;;;;;;;4.38;2.60;;;;;;;;;;5004699;28;20049;-74
2023/02/27 13:14:27;;;;;;;3.53;2.35;;;;;;;;;;5005060;28;20371;-75
2023/02/27 13:17:11;;;;;;;4.65;2.78;;;;;;;;;;5000125;28;20530;-74
2023/02/27 13:19:55;;;;;;;;;;;;;;;;;;5014336;28;20045;-74
2023/02/27 13:22:43;;;;;;;3.22;2.05;;;;;;;;;;5014000;28;19914;-74
2023/02/27 13:25:14;;;;;;;2.97;1.95;;;;;;;;;;5002108;28;20050;-75
2023/02/27 13:27:55;;;;;;;3.97;1.83;;;;;;;;;;5013186;28;20041;-75
2023/02/27 13:30:26;;;;;;;5.80;2.22;;;;;;;;;;5028276;28;20088;-75
2023/02/27 13:33:15;;;;;;;5.90;2.30;;;;;;;;;;5000556;28;20046;-76
2023/02/27 13:35:52;;;;;;;4.63;2.20;;;;;;;;;;5011772;28;20085;-74
2023/02/27 13:38:46;;;;;;;3.63;2.10;;;;;;;;;;5010042;28;20045;-74
2023/02/27 13:41:24;;;;;;;5.18;1.98;;;;;;;;;;5003876;28;20030;-75
2023/02/27 13:43:56;;;;;;;3.30;1.70;;;;;;;;;;5011619;28;20485;-75
2023/02/27 13:46:26;;;;;;;4.68;2.20;;;;;;;;;;5009470;28;20050;-75
2023/02/27 13:49:04;;;;;;;3.00;1.90;;;;;;;;;;5013369;28;20121;-74
2023/02/27 13:51:41;;;;;;;5.03;1.80;;;;;;;;;;5013209;28;20490;-75
2023/02/27 13:54:12;;;;;;;3.35;1.83;;;;;;;;;;5013305;28;20482;-75
2023/02/27 13:56:43;;;;;;;3.03;1.63;;;;;;;;;;5013429;28;20038;-74
2023/02/27 13:59:16;;;;;;;5.55;1.92;;;;;;;;;;5013377;28;20046;-75
2023/02/27 14:02:06;;;;;;;3.83;1.67;;;;;;;;;;5028235;28;20049;-75
2023/02/27 14:04:35;;;;;;;3.55;1.60;;;;;;;;;;5001625;28;20050;-74
2023/02/27 14:07:08;;;;;;;2.88;1.48;;;;;;;;;;4992551;28;20046;-74
2023/02/27 14:09:40;;;;;;;4.57;1.67;;;;;;;;;;5007628;28;20030;-74
2023/02/27 14:12:41;;;;;;;3.72;1.70;;;;;;;;;;5000703;28;20041;-75
2023/02/27 14:15:16;;;;;;;3.03;1.30;;;;;;;;;;5022002;28;20050;-75
2023/02/27 14:17:43;;;;;;;3.10;1.48;;;;;;;;;;5009855;28;20042;-75
2023/02/27 14:20:15;;;;;;;3.88;1.70;;;;;;;;;;5012871;28;20504;-75
2023/02/27 14:23:10;;;;;;;1.98;0.93;;;;;;;;;;5013150;28;20173;-75
2023/02/27 14:25:43;;;;;;;2.45;1.42;;;;;;;;;;5011344;28;20222;-75
2023/02/27 14:28:35;;;;;;;3.95;1.23;;;;;;;;;;5011888;28;20459;-75
2023/02/27 14:31:04;;;;;;;2.90;1.20;;;;;;;;;;4996071;28;20046;-75
2023/02/27 14:33:42;;;;;;;3.20;1.13;;;;;;;;;;5000694;28;20053;-75
2023/02/27 14:36:14;;;;;;;3.83;1.30;;;;;;;;;;5011802;28;20049;-75
2023/02/27 14:38:40;;;;;;;3.65;1.40;;;;;;;;;;5009514;28;20058;-75
2023/02/27 14:41:43;;;;;;;3.88;1.15;;;;;;;;;;5027609;28;20096;-75
2023/02/27 14:44:21;;;;;;;6.88;1.45;;;;;;;;;;5011013;28;20050;-74
2023/02/27 14:46:47;;;;;;;3.10;1.50;;;;;;;;;;5009375;28;20044;-76
2023/02/27 14:49:19;;;;;;;4.10;1.30;;;;;;;;;;5012766;28;20130;-75
2023/02/27 14:51:45;;;;;;;3.53;1.13;;;;;;;;;;5009571;28;20492;-75
2023/02/27 14:54:13;;;;;;;4.22;1.40;;;;;;;;;;5011235;28;20030;-75
2023/02/27 14:56:39;;;;;;;4.70;1.20;;;;;;;;;;5011196;28;20038;-75
2023/02/27 14:59:26;;;;;;;3.80;1.20;;;;;;;;;;5031168;28;20037;-75
2023/02/27 15:01:53;;;;;;;4.00;1.10;;;;;;;;;;5015659;28;20605;-75
2023/02/27 15:04:20;;;;;;;3.15;1.25;;;;;;;;;;5014111;28;20092;-74
2023/02/27 15:06:48;;;;;;;4.72;1.20;;;;;;;;;;5017118;28;20070;-75
2023/02/27 15:09:21;;;;;;;3.35;1.00;;;;;;;;;;5014005;28;20042;-74
2023/02/27 15:11:47;;;;;;;2.28;0.73;;;;;;;;;;5014523;28;20034;-76
2023/02/27 15:14:18;;;;;;;1.38;0.80;;;;;;;;;;5015261;28;20095;-75